Time;durP1;ratioP1;P1;durP2;ratioP2;P2;SDS_P1;SDS_P2;PMS_P1;PMS_P2;Temp;Humidity;BMP_temperature;BMP_pressure;BME280_temperature;BME280_humidity;BME280_pressure;Samples;Min_cycle;Max_cycle;Signal;HPM_P1;HPM_P2
2022/03/30 00:01:09;;;;;;;3.80;1.20;;;;;;;21.75;29.90;98141.25;5111752;28;20043;-59
2022/03/30 00:03:35;;;;;;;3.50;1.50;;;;;;;21.71;29.64;98133.72;5108651;28;20044;-59
2022/03/30 00:06:00;;;;;;;2.80;1.50;;;;;;;21.73;30.03;98141.69;5108447;28;20057;-59
2022/03/30 00:08:26;;;;;;;2.00;1.20;;;;;;;21.74;30.11;98146.03;5108793;28;20039;-59
2022/03/30 00:10:51;;;;;;;2.47;1.35;;;;;;;21.74;30.02;98145.25;5109268;28;20391;-59
2022/03/30 00:13:17;;;;;;;2.97;1.73;;;;;;;21.72;30.02;98145.66;5111699;28;20070;-59
2022/03/30 00:15:43;;;;;;;2.15;1.27;;;;;;;21.73;30.03;98138.13;5115690;28;20058;-59
2022/03/30 00:18:08;;;;;;;2.67;1.30;;;;;;;21.73;30.37;98154.81;5114600;28;20047;-59
2022/03/30 00:20:34;;;;;;;2.13;1.30;;;;;;;21.72;30.09;98165.16;5115757;28;20393;-59
2022/03/30 00:22:59;;;;;;;2.63;1.40;;;;;;;21.72;30.35;98162.38;5104951;28;20131;-59
2022/03/30 00:25:25;;;;;;;1.75;1.10;;;;;;;21.72;30.47;98167.94;5112522;28;20036;-59
2022/03/30 00:27:50;;;;;;;1.73;1.10;;;;;;;21.72;30.70;98173.50;5111660;28;20050;-59
2022/03/30 00:30:18;;;;;;;2.78;1.40;;;;;;;21.72;30.46;98173.50;5111754;28;20051;-59
2022/03/30 00:32:44;;;;;;;1.85;1.08;;;;;;;21.72;30.92;98176.28;5111377;28;20124;-59
2022/03/30 00:35:10;;;;;;;2.03;1.20;;;;;;;21.71;31.03;98169.91;5114749;28;20074;-59
2022/03/30 00:37:36;;;;;;;2.63;1.23;;;;;;;21.70;31.27;98171.09;5111896;28;20067;-59
2022/03/30 00:40:07;;;;;;;2.15;1.20;;;;;;;21.68;31.42;98164.38;5111868;28;20039;-59
2022/03/30 00:42:33;;;;;;;2.10;1.35;;;;;;;21.68;32.02;98167.94;5114705;28;20046;-59
2022/03/30 00:45:08;;;;;;;2.75;1.40;;;;;;;21.66;32.19;98164.81;5111855;28;20035;-59
2022/03/30 00:47:33;;;;;;;2.40;1.40;;;;;;;21.65;32.25;98168.78;5114329;28;20035;-59
2022/03/30 00:49:59;;;;;;;2.35;1.27;;;;;;;21.66;32.45;98169.56;5111636;28;20123;-59
2022/03/30 00:52:24;;;;;;;2.50;1.30;;;;;;;21.65;32.50;98168.78;5111013;28;20027;-59
2022/03/30 00:54:51;;;;;;;1.85;1.02;;;;;;;21.65;32.95;98162.44;5109801;28;20434;-59
2022/03/30 00:57:21;;;;;;;1.60;1.15;;;;;;;21.63;33.22;98159.25;5132457;28;20131;-59
2022/03/30 00:59:47;;;;;;;2.42;1.40;;;;;;;21.64;33.14;98149.69;5132398;28;20051;-59
2022/03/30 01:02:13;;;;;;;2.38;1.30;;;;;;;21.63;33.67;98145.34;5132462;28;20043;-59
2022/03/30 01:04:39;;;;;;;2.22;1.35;;;;;;;21.61;33.91;98144.97;5132222;28;20039;-59
2022/03/30 01:07:05;;;;;;;2.33;1.20;;;;;;;21.61;33.72;98150.53;5131798;28;20082;-59
2022/03/30 01:09:30;;;;;;;2.25;1.23;;;;;;;21.58;34.03;98135.47;5132454;28;20087;-59
2022/03/30 01:11:56;;;;;;;3.20;1.35;;;;;;;21.58;34.24;98137.44;5132087;28;20047;-59
2022/03/30 01:14:22;;;;;;;2.03;1.20;;;;;;;21.59;34.44;98136.25;5132050;28;20059;-59
2022/03/30 01:16:48;;;;;;;3.05;1.50;;;;;;;21.56;34.39;98135.06;5113394;28;20039;-59
2022/03/30 01:19:14;;;;;;;2.15;1.30;;;;;;;21.56;34.87;98139.84;5111869;28;20047;-60
2022/03/30 01:21:41;;;;;;;2.58;1.40;;;;;;;21.56;35.13;98131.47;5111066;28;20092;-59
2022/03/30 01:24:08;;;;;;;1.75;1.20;;;;;;;21.56;34.98;98131.47;5111412;28;20081;-59
2022/03/30 01:26:34;;;;;;;3.10;1.70;;;;;;;21.56;35.57;98131.47;5111716;28;20057;-59
2022/03/30 01:29:00;;;;;;;2.60;1.23;;;;;;;21.55;35.39;98138.25;5111657;28;20059;-59
2022/03/30 01:34:11;;;;;;;2.45;1.30;;;;;;;21.53;35.92;98135.88;5111227;28;20054;-59
2022/03/30 01:36:37;;;;;;;2.33;1.20;;;;;;;21.53;35.88;98126.75;5111308;28;20586;-59
2022/03/30 01:39:04;;;;;;;1.95;1.17;;;;;;;21.52;36.22;98127.97;5119776;27;20498;-60
2022/03/30 01:41:29;;;;;;;2.30;1.20;;;;;;;21.52;36.12;98125.19;5132248;28;20043;-59
2022/03/30 01:43:56;;;;;;;2.45;1.40;;;;;;;21.49;36.29;98120.41;5131907;28;20035;-59
2022/03/30 01:46:22;;;;;;;3.63;1.60;;;;;;;21.51;36.48;98118.81;5132010;28;20080;-59
2022/03/30 01:48:48;;;;;;;2.35;1.35;;;;;;;21.52;36.36;98114.06;5131918;28;20047;-59
2022/03/30 01:51:14;;;;;;;1.90;1.17;;;;;;;21.51;36.88;98113.25;5131684;28;20388;-59
2022/03/30 01:53:40;;;;;;;2.42;1.48;;;;;;;21.50;36.89;98110.88;5131256;28;20502;-59
2022/03/30 01:56:06;;;;;;;2.88;1.70;;;;;;;21.50;37.02;98110.88;5131828;28;20123;-59
2022/03/30 01:58:31;;;;;;;3.45;1.65;;;;;;;21.48;37.11;98113.28;5131745;28;20067;-59
2022/03/30 02:00:57;;;;;;;2.92;1.58;;;;;;;21.49;37.10;98112.84;5131558;28;20057;-59
2022/03/30 02:03:24;;;;;;;3.17;1.65;;;;;;;21.43;37.14;98095.84;5131604;28;20077;-59
2022/03/30 02:05:50;;;;;;;2.80;1.40;;;;;;;21.48;37.55;98102.16;5131652;28;20472;-59
2022/03/30 02:08:16;;;;;;;3.15;1.58;;;;;;;21.46;37.51;98096.22;5131381;28;20129;-59
2022/03/30 02:10:41;;;;;;;2.13;1.20;;;;;;;21.45;37.56;98094.63;5131654;28;20039;-59
2022/03/30 02:13:07;;;;;;;2.75;1.45;;;;;;;21.44;37.52;98102.19;5130914;28;20076;-59
2022/03/30 02:15:32;;;;;;;3.10;1.40;;;;;;;21.41;37.60;98109.34;5131249;28;20051;-60
2022/03/30 02:17:59;;;;;;;2.08;1.30;;;;;;;21.43;38.00;98097.81;5131105;28;20043;-59
2022/03/30 02:20:25;;;;;;;2.22;1.40;;;;;;;21.41;37.89;98089.88;5096751;28;20080;-59
2022/03/30 02:22:50;;;;;;;2.47;1.30;;;;;;;21.42;38.04;98090.66;5131320;28;20209;-59
2022/03/30 02:25:16;;;;;;;2.60;1.58;;;;;;;21.40;38.21;98090.31;5131237;28;20351;-59
2022/03/30 02:27:41;;;;;;;2.95;1.35;;;;;;;21.42;38.16;98088.69;5130881;28;20406;-59
2022/03/30 02:30:08;;;;;;;2.65;1.48;;;;;;;21.39;38.05;98080.38;5131190;28;20099;-59
2022/03/30 02:32:36;;;;;;;2.05;1.35;;;;;;;21.41;38.36;98086.31;5130874;28;20043;-59
2022/03/30 02:35:02;;;;;;;2.38;1.33;;;;;;;21.43;38.41;98079.16;5130056;27;20051;-59
2022/03/30 02:37:28;;;;;;;2.75;1.30;;;;;;;21.42;38.50;98085.09;5131048;28;20045;-59
2022/03/30 02:39:53;;;;;;;3.03;1.70;;;;;;;21.41;38.25;98075.97;5130926;28;20043;-59
2022/03/30 02:42:18;;;;;;;3.13;1.70;;;;;;;21.41;38.45;98077.97;5130969;28;20070;-59
2022/03/30 02:44:44;;;;;;;2.55;1.50;;;;;;;21.39;38.33;98070.03;5130991;28;20510;-59
2022/03/30 02:47:09;;;;;;;2.55;1.50;;;;;;;21.41;38.70;98075.19;5130689;28;20138;-59
2022/03/30 02:49:35;;;;;;;2.58;1.50;;;;;;;21.38;38.73;98067.69;5130738;28;20043;-59
2022/03/30 02:52:01;;;;;;;2.33;1.20;;;;;;;21.39;38.61;98067.25;5130521;28;20449;-59
2022/03/30 02:54:27;;;;;;;3.30;1.40;;;;;;;21.40;38.97;98063.28;5130610;28;20563;-59
2022/03/30 02:56:53;;;;;;;4.10;1.73;;;;;;;21.41;38.89;98073.19;5130796;28;20035;-59
2022/03/30 02:59:18;;;;;;;2.72;1.50;;;;;;;21.45;38.67;98069.59;5130758;28;20043;-59
2022/03/30 03:01:44;;;;;;;2.72;1.33;;;;;;;21.41;39.04;98070.41;5130402;28;20419;-61
2022/03/30 03:04:09;;;;;;;2.90;1.40;;;;;;;21.40;39.13;98057.72;5130661;28;20445;-61
2022/03/30 03:06:35;;;;;;;2.38;1.55;;;;;;;21.42;39.02;98063.63;5130542;28;20138;-61
2022/03/30 03:09:00;;;;;;;2.83;1.50;;;;;;;21.44;39.12;98063.25;5130500;28;20051;-61
2022/03/30 03:11:26;;;;;;;2.22;1.33;;;;;;;21.43;39.22;98065.25;5130696;28;20054;-61
2022/03/30 03:13:52;;;;;;;2.10;1.30;;;;;;;21.42;38.96;98060.84;5130174;28;20040;-61
2022/03/30 03:16:18;;;;;;;2.85;1.60;;;;;;;21.44;39.08;98057.69;5130317;28;20043;-61
2022/03/30 03:18:44;;;;;;;2.38;1.30;;;;;;;21.44;38.94;98052.13;5130570;28;20039;-61
2022/03/30 03:21:10;;;;;;;3.05;1.50;;;;;;;21.43;39.05;98056.09;5130433;28;20086;-61
2022/03/30 03:23:35;;;;;;;3.00;1.58;;;;;;;21.44;39.16;98052.13;5130300;28;20071;-61
2022/03/30 03:26:01;;;;;;;2.90;1.40;;;;;;;21.44;39.57;98057.69;5130440;28;20039;-61
2022/03/30 03:28:26;;;;;;;2.97;1.70;;;;;;;21.44;38.99;98052.13;5130187;28;20085;-61
2022/03/30 03:30:52;;;;;;;3.17;1.80;;;;;;;21.43;39.22;98047.75;5098258;28;20047;-61
2022/03/30 03:33:17;;;;;;;2.83;1.40;;;;;;;21.43;39.49;98051.34;5129895;28;20472;-61
2022/03/30 03:35:44;;;;;;;2.80;1.60;;;;;;;21.42;39.30;98046.16;5130296;28;20051;-61
2022/03/30 03:38:10;;;;;;;2.60;1.45;;;;;;;21.46;39.28;98037.81;5130283;28;20051;-61
2022/03/30 03:40:36;;;;;;;2.67;1.42;;;;;;;21.45;39.53;98048.13;5130100;28;20053;-61
2022/03/30 03:43:03;;;;;;;3.22;1.65;;;;;;;21.45;39.64;98048.13;5130256;28;20047;-61
2022/03/30 03:45:28;;;;;;;4.40;1.70;;;;;;;21.43;39.53;98033.81;5131373;27;20066;-61
2022/03/30 03:47:54;;;;;;;2.90;1.30;;;;;;;21.43;39.57;98037.44;5133577;28;20043;-61
2022/03/30 03:50:20;;;;;;;2.30;1.40;;;;;;;21.45;39.78;98034.22;5133722;28;20136;-59
2022/03/30 03:52:45;;;;;;;2.58;1.40;;;;;;;21.45;39.54;98039.00;5133500;28;20072;-59
2022/03/30 03:55:11;;;;;;;2.75;1.30;;;;;;;21.43;39.80;98031.03;5133568;28;20690;-59
2022/03/30 03:57:38;;;;;;;2.83;1.52;;;;;;;21.45;39.67;98030.66;5133638;28;20083;-61
2022/03/30 04:00:05;;;;;;;3.35;1.40;;;;;;;21.42;39.46;98027.47;5133814;28;20047;-61
2022/03/30 04:02:31;;;;;;;2.50;1.42;;;;;;;21.42;39.53;98021.91;5133588;28;20470;-61
2022/03/30 04:04:56;;;;;;;2.75;1.40;;;;;;;21.45;39.63;98019.53;5133473;28;20129;-61
2022/03/30 04:07:22;;;;;;;2.50;1.50;;;;;;;21.44;39.55;98015.97;5133610;28;20047;-61
2022/03/30 04:09:47;;;;;;;3.30;1.67;;;;;;;21.45;39.62;98020.31;5133458;28;20047;-61
2022/03/30 04:12:12;;;;;;;2.15;1.30;;;;;;;21.43;39.59;98017.97;5133213;28;21341;-61
2022/03/30 04:14:38;;;;;;;2.28;1.50;;;;;;;21.43;39.55;98017.97;5133034;28;20038;-61
2022/03/30 04:17:04;;;;;;;2.80;1.70;;;;;;;21.46;39.63;98018.31;5133184;28;20424;-61
2022/03/30 04:19:30;;;;;;;2.53;1.30;;;;;;;21.46;39.80;98010.75;5133316;28;20055;-61
2022/03/30 04:21:55;;;;;;;2.35;1.40;;;;;;;21.45;39.82;98011.97;5133113;28;20047;-61
2022/03/30 04:24:20;;;;;;;2.90;1.50;;;;;;;21.45;40.08;98005.63;5132975;28;20050;-61
2022/03/30 04:26:46;;;;;;;3.03;1.65;;;;;;;21.41;39.63;98008.44;5133065;28;20043;-61
2022/03/30 04:29:11;;;;;;;2.53;1.38;;;;;;;21.45;39.97;98009.19;5133017;28;20032;-61
2022/03/30 04:31:37;;;;;;;2.67;1.30;;;;;;;21.43;39.79;98015.19;5132854;28;20329;-61
2022/03/30 04:34:02;;;;;;;2.47;1.52;;;;;;;21.42;39.83;98010.78;5132386;28;20036;-61
2022/03/30 04:36:28;;;;;;;3.05;1.60;;;;;;;21.43;40.04;98006.84;5133083;28;20126;-61
2022/03/30 04:38:53;;;;;;;2.67;1.52;;;;;;;21.46;39.94;98016.34;5132860;28;20055;-61
2022/03/30 04:41:19;;;;;;;3.35;1.48;;;;;;;21.44;39.92;98007.63;5132789;28;20054;-61
2022/03/30 04:43:44;;;;;;;2.83;1.60;;;;;;;21.43;39.89;98001.28;5132801;28;20062;-61
2022/03/30 04:46:11;;;;;;;2.13;1.33;;;;;;;21.43;40.01;98006.00;5132886;28;20130;-61
2022/03/30 04:48:37;;;;;;;2.78;1.40;;;;;;;21.42;39.85;98002.44;5132515;28;20108;-61
2022/03/30 04:51:03;;;;;;;2.03;1.23;;;;;;;21.43;39.80;98006.84;5132464;28;20071;-61
2022/03/30 04:53:28;;;;;;;2.80;1.58;;;;;;;21.43;39.98;98000.44;5132158;28;20054;-61
2022/03/30 04:55:54;;;;;;;3.08;1.77;;;;;;;21.45;39.93;98008.41;5132516;28;20043;-61
2022/03/30 04:58:19;;;;;;;2.60;1.40;;;;;;;21.46;40.15;98001.63;5131691;27;20082;-61
2022/03/30 05:00:44;;;;;;;2.97;1.50;;;;;;;21.44;40.35;97993.72;5132497;28;20039;-61
2022/03/30 05:03:10;;;;;;;3.08;1.55;;;;;;;21.45;40.00;98006.41;5132569;28;20129;-61
2022/03/30 05:05:35;;;;;;;2.28;1.38;;;;;;;21.46;40.08;97998.84;5132544;28;20047;-61
2022/03/30 05:08:01;;;;;;;2.38;1.45;;;;;;;21.45;40.07;98002.84;5132408;28;20044;-61
2022/03/30 05:10:28;;;;;;;2.53;1.58;;;;;;;21.44;40.07;98002.06;5132321;28;20405;-61
2022/03/30 05:12:54;;;;;;;2.00;1.40;;;;;;;21.45;40.45;98000.06;5132075;28;20130;-61
2022/03/30 05:15:20;;;;;;;2.78;1.40;;;;;;;21.42;40.44;97988.53;5131909;28;20161;-61
2022/03/30 05:17:46;;;;;;;2.35;1.60;;;;;;;21.43;40.37;97992.91;5132113;28;20039;-60
2022/03/30 05:20:13;;;;;;;2.35;1.45;;;;;;;21.45;40.48;97992.50;5132376;28;20070;-59
2022/03/30 05:22:38;;;;;;;2.35;1.50;;;;;;;21.43;40.66;97990.13;5132301;28;20047;-59
2022/03/30 05:25:05;;;;;;;3.05;1.63;;;;;;;21.43;40.45;97992.09;5132246;28;20084;-59
2022/03/30 05:27:31;;;;;;;2.35;1.50;;;;;;;21.42;40.52;97999.66;5131684;28;20109;-60
2022/03/30 05:29:56;;;;;;;4.55;1.52;;;;;;;21.52;40.22;97995.22;5131920;28;20426;-59
2022/03/30 05:32:24;;;;;;;31.75;3.15;;;;;;;21.54;40.27;97989.22;5132080;28;20035;-59
2022/03/30 05:34:50;;;;;;;30.25;2.80;;;;;;;21.53;40.28;97993.22;5131455;28;20561;-59
2022/03/30 05:37:15;;;;;;;15.55;2.50;;;;;;;21.51;40.78;98003.97;5132167;28;20043;-58
2022/03/30 05:39:41;;;;;;;19.35;2.20;;;;;;;21.47;40.45;97998.44;5131710;28;20039;-59
2022/03/30 05:42:12;;;;;;;20.65;2.17;;;;;;;21.46;40.40;98001.63;5131847;28;20047;-59
2022/03/30 05:44:38;;;;;;;16.92;2.58;;;;;;;21.42;40.46;98002.44;5131559;28;20427;-59
2022/03/30 05:47:04;;;;;;;11.13;2.00;;;;;;;21.42;40.43;98005.22;5097188;28;20536;-59
2022/03/30 05:49:30;;;;;;;13.57;2.42;;;;;;;21.42;40.73;98002.44;5094441;28;20051;-59
2022/03/30 05:51:55;;;;;;;11.25;1.80;;;;;;;21.40;40.61;98002.06;5131638;28;20047;-59
2022/03/30 05:54:21;;;;;;;14.23;2.28;;;;;;;21.40;40.58;98007.63;5131038;28;20179;-58
2022/03/30 05:57:01;;;;;;;11.50;2.00;;;;;;;21.40;40.29;98009.63;5131542;28;20039;-58
2022/03/30 05:59:31;;;;;;;7.28;1.80;;;;;;;21.38;40.75;98010.06;5131379;28;20064;-58
2022/03/30 06:01:57;;;;;;;11.20;1.80;;;;;;;21.38;40.53;98003.69;5131735;28;20415;-59
2022/03/30 06:04:23;;;;;;;7.57;1.98;;;;;;;21.38;40.66;98009.25;5131680;28;20054;-58
2022/03/30 06:06:50;;;;;;;12.55;1.70;;;;;;;21.38;40.39;98018.41;5131396;28;20043;-59
2022/03/30 06:09:16;;;;;;;5.03;1.55;;;;;;;21.37;40.38;98008.47;5129720;27;20050;-59
2022/03/30 06:11:42;;;;;;;6.78;1.65;;;;;;;21.38;40.47;98003.69;5097372;28;20044;-59
2022/03/30 06:14:07;;;;;;;7.88;2.00;;;;;;;21.39;40.68;98011.63;5131081;28;20046;-59
2022/03/30 06:16:33;;;;;;;8.45;1.67;;;;;;;21.40;40.67;98013.19;5130992;28;20045;-59
2022/03/30 06:18:58;;;;;;;5.93;1.70;;;;;;;21.40;40.70;98007.63;5131253;28;20040;-62
2022/03/30 06:21:24;;;;;;;4.70;1.45;;;;;;;21.40;40.76;98015.97;5131161;28;20127;-62
2022/03/30 06:23:50;;;;;;;3.38;1.58;;;;;;;21.41;40.64;98012.00;5131049;28;20541;-62
2022/03/30 06:26:16;;;;;;;5.63;1.52;;;;;;;21.40;40.76;98007.63;5130939;28;20070;-62
2022/03/30 06:28:42;;;;;;;6.30;1.67;;;;;;;21.41;40.78;98011.22;5131177;28;20413;-62
2022/03/30 06:31:09;;;;;;;3.90;1.60;;;;;;;21.40;40.79;98007.63;5131172;28;20495;-62
2022/03/30 06:33:35;;;;;;;4.80;1.67;;;;;;;21.40;40.87;98010.41;5130817;28;20050;-62
2022/03/30 06:36:00;;;;;;;4.15;1.63;;;;;;;21.39;40.79;98017.19;5130722;28;20043;-62
2022/03/30 06:38:26;;;;;;;4.00;1.50;;;;;;;21.41;41.02;98008.44;5124315;28;20409;-62
2022/03/30 06:40:53;;;;;;;6.05;1.40;;;;;;;21.39;40.84;98000.50;5116579;28;20043;-62
2022/03/30 06:43:18;;;;;;;6.20;1.85;;;;;;;21.45;41.12;98013.97;5111608;28;20487;-61
2022/03/30 06:45:46;;;;;;;3.47;1.65;;;;;;;21.45;41.20;98006.41;5111491;28;20047;-61
2022/03/30 06:48:11;;;;;;;5.53;1.70;;;;;;;21.47;41.52;98012.34;5109794;28;20577;-62
2022/03/30 06:50:37;;;;;;;3.55;1.40;;;;;;;21.50;41.29;98005.16;5107622;28;20047;-62
2022/03/30 06:53:05;;;;;;;3.63;1.48;;;;;;;21.51;41.70;98006.75;5089304;28;20509;-62
2022/03/30 06:55:31;;;;;;;2.72;1.70;;;;;;;21.49;41.73;98004.38;5111908;28;20047;-61
2022/03/30 06:57:56;;;;;;;2.25;1.50;;;;;;;21.51;41.70;98003.97;5113922;28;20039;-62
2022/03/30 07:00:22;;;;;;;2.28;1.40;;;;;;;21.51;41.36;97995.63;5111513;28;20036;-62
2022/03/30 07:02:48;;;;;;;9.43;1.85;;;;;;;21.51;42.04;97999.19;5109840;28;20126;-62
2022/03/30 07:05:13;;;;;;;2.75;1.70;;;;;;;21.53;41.59;97998.78;5110758;28;20046;-63
2022/03/30 07:10:23;;;;;;;3.42;1.70;;;;;;;21.53;42.04;97994.00;5107981;27;20073;-62
2022/03/30 07:12:53;;;;;;;2.80;1.52;;;;;;;21.54;42.15;97995.56;5109806;28;20047;-61
2022/03/30 07:15:20;;;;;;;3.78;2.00;;;;;;;21.56;41.93;97986.81;5116212;28;20095;-63
2022/03/30 07:17:54;;;;;;;2.60;1.60;;;;;;;21.53;41.96;97991.22;5112384;28;20043;-62
2022/03/30 07:20:21;;;;;;;4.78;1.77;;;;;;;21.55;42.06;97986.03;5091563;28;20080;-61
2022/03/30 07:22:48;;;;;;;3.30;1.67;;;;;;;21.58;41.93;97981.66;5110765;28;20039;-61
2022/03/30 07:25:15;;;;;;;2.88;1.63;;;;;;;21.58;42.23;97979.66;5113402;28;20047;-60
2022/03/30 07:27:42;;;;;;;4.60;1.80;;;;;;;21.59;41.85;97970.09;5109604;28;20093;-61
2022/03/30 07:30:09;;;;;;;2.70;1.77;;;;;;;21.58;41.89;97976.06;5113794;28;20079;-61
2022/03/30 07:32:38;;;;;;;5.38;2.08;;;;;;;21.57;42.08;97964.13;5111494;28;20036;-60
2022/03/30 07:35:04;;;;;;;3.08;1.98;;;;;;;21.54;41.78;97964.19;5117900;28;20040;-64
2022/03/30 07:37:30;;;;;;;3.55;2.08;;;;;;;21.55;41.98;97954.63;5116475;28;20449;-63
2022/03/30 07:39:55;;;;;;;3.72;2.30;;;;;;;21.57;42.23;97966.13;5114323;28;20054;-62
2022/03/30 07:42:21;;;;;;;5.40;2.47;;;;;;;21.60;42.22;97965.31;5115428;28;20413;-61
2022/03/30 07:44:46;;;;;;;3.20;2.35;;;;;;;21.59;42.07;97964.53;5111242;28;20042;-61
2022/03/30 07:47:11;;;;;;;6.00;2.28;;;;;;;21.61;42.13;97975.22;5111128;27;20055;-60
2022/03/30 07:49:37;;;;;;;4.47;2.30;;;;;;;21.62;42.14;97965.69;5113320;28;20475;-62
2022/03/30 07:52:04;;;;;;;5.50;2.53;;;;;;;21.60;42.28;97960.53;5118252;28;20039;-63
2022/03/30 07:54:30;;;;;;;3.28;2.20;;;;;;;21.61;42.66;97964.88;5113462;27;20118;-62
2022/03/30 07:56:55;;;;;;;3.88;2.45;;;;;;;21.63;42.52;97961.69;5114484;28;20154;-61
2022/03/30 07:59:21;;;;;;;10.90;2.47;;;;;;;21.64;42.57;97960.47;5116662;28;20438;-64
2022/03/30 08:01:46;;;;;;;4.43;2.60;;;;;;;21.64;42.56;97960.47;5112703;27;20073;-61
2022/03/30 08:04:12;;;;;;;3.67;2.20;;;;;;;21.65;42.61;97957.31;5115247;27;20560;-60
2022/03/30 08:06:37;;;;;;;4.53;2.53;;;;;;;21.66;42.79;97969.22;5107805;27;20073;-60
2022/03/30 08:09:03;;;;;;;5.90;2.30;;;;;;;21.67;42.72;97959.66;5116735;28;20379;-60
2022/03/30 08:11:29;;;;;;;3.88;2.17;;;;;;;21.72;42.69;97953.66;5114601;28;20089;-59
2022/03/30 08:13:56;;;;;;;4.03;2.40;;;;;;;21.71;42.52;97958.41;5116137;28;20094;-61
2022/03/30 08:16:22;;;;;;;4.18;2.15;;;;;;;21.71;42.31;97949.25;5111305;27;20050;-62
2022/03/30 08:18:48;;;;;;;6.10;2.40;;;;;;;21.67;41.79;97949.31;5112689;27;20055;-61
2022/03/30 08:23:58;;;;;;;3.75;2.55;;;;;;;21.67;42.58;97954.09;5114645;28;20529;-61
2022/03/30 08:26:24;;;;;;;6.68;2.55;;;;;;;21.67;42.46;97954.88;5115925;28;20043;-61
2022/03/30 08:28:50;;;;;;;5.60;2.55;;;;;;;21.69;42.39;97954.47;5111807;28;20044;-62
2022/03/30 08:31:16;;;;;;;4.57;2.20;;;;;;;21.65;42.85;97951.75;5120089;27;20055;-61
2022/03/30 08:33:41;;;;;;;5.78;2.20;;;;;;;21.65;42.67;97945.38;5116586;28;20043;-60
2022/03/30 08:36:07;;;;;;;4.72;2.20;;;;;;;21.64;42.89;97950.13;5112292;28;20059;-61
2022/03/30 08:38:33;;;;;;;4.95;2.20;;;;;;;21.63;43.07;97948.56;5119673;28;20079;-61
2022/03/30 08:40:59;;;;;;;4.47;2.30;;;;;;;21.65;43.20;97956.53;5112978;28;20101;-62
2022/03/30 08:43:29;;;;;;;3.65;2.40;;;;;;;21.65;43.20;97950.94;5116767;28;20052;-64
2022/03/30 08:45:57;;;;;;;3.13;2.17;;;;;;;21.65;42.99;97943.38;5112469;28;20039;-63
2022/03/30 08:48:22;;;;;;;4.43;2.13;;;;;;;21.65;43.09;97943.38;5118955;28;20051;-64
2022/03/30 08:50:49;;;;;;;2.90;1.92;;;;;;;21.69;42.77;97940.53;5095996;28;20081;-62
2022/03/30 08:53:16;;;;;;;4.18;1.80;;;;;;;21.69;42.86;97934.97;5120992;28;20047;-63
2022/03/30 08:55:41;;;;;;;3.05;2.00;;;;;;;21.68;43.02;97933.41;5117136;28;20096;-63
2022/03/30 08:58:07;;;;;;;4.18;2.28;;;;;;;21.67;43.06;97949.31;5117778;27;20450;-65
2022/03/30 09:00:34;;;;;;;10.52;2.47;;;;;;;21.65;42.97;97937.03;5111113;27;20149;-64
2022/03/30 09:03:03;;;;;;;2.67;1.88;;;;;;;21.65;43.05;97934.25;5119514;28;20062;-62
2022/03/30 09:05:31;;;;;;;3.30;1.85;;;;;;;21.63;43.09;97931.06;5117996;28;20411;-61
2022/03/30 09:08:20;;;;;;;3.15;1.85;;;;;;;21.65;42.67;97935.03;5120970;28;20594;-61
2022/03/30 09:10:48;;;;;;;3.20;2.05;;;;;;;21.66;42.72;97933.03;5118861;27;20047;-62
2022/03/30 09:13:17;;;;;;;4.85;2.28;;;;;;;21.63;43.08;97931.88;5116494;28;20501;-60
2022/03/30 09:15:44;;;;;;;3.80;2.10;;;;;;;21.63;42.75;97925.50;5113246;28;20073;-60
2022/03/30 09:18:11;;;;;;;7.72;2.42;;;;;;;21.64;42.48;97927.09;5117328;28;20044;-65
2022/03/30 09:20:42;;;;;;;6.85;2.60;;;;;;;21.65;42.59;97923.13;5115105;28;20048;-64
2022/03/30 09:23:09;;;;;;;3.45;2.17;;;;;;;21.67;42.60;97921.50;5118400;28;20065;-66
2022/03/30 09:25:35;;;;;;;4.88;2.38;;;;;;;21.67;42.79;97915.94;5116318;28;20054;-60
2022/03/30 09:28:02;;;;;;;3.55;2.20;;;;;;;21.68;42.93;97917.50;5114917;28;20136;-60
2022/03/30 09:30:29;;;;;;;5.65;2.47;;;;;;;21.70;42.76;97908.72;5110716;27;20059;-61
2022/03/30 09:32:57;;;;;;;8.48;2.22;;;;;;;21.70;42.70;97908.72;5113614;28;20092;-63
2022/03/30 09:35:28;;;;;;;3.25;2.38;;;;;;;21.70;42.47;97908.72;5102955;28;20465;-62
2022/03/30 09:38:06;;;;;;;4.15;2.50;;;;;;;21.71;42.73;97894.38;5114092;27;20047;-65
2022/03/30 09:40:34;;;;;;;5.90;1.90;;;;;;;21.75;42.48;97897.16;5115208;27;20670;-62
2022/03/30 09:43:37;;;;;;;5.63;2.38;;;;;;;21.75;42.39;97897.16;5117185;27;20051;-61
2022/03/30 09:46:02;;;;;;;4.13;2.17;;;;;;;21.78;42.35;97899.06;5019713;28;20466;-62
2022/03/30 09:48:29;;;;;;;3.42;2.00;;;;;;;21.77;42.25;97885.59;5008703;28;20077;-60
2022/03/30 09:50:56;;;;;;;3.22;1.80;;;;;;;21.79;42.07;97878.41;5014346;28;20066;-60
2022/03/30 09:53:25;;;;;;;3.47;1.77;;;;;;;21.79;42.11;97874.81;5005876;28;20121;-60
2022/03/30 09:56:14;;;;;;;2.90;1.73;;;;;;;21.82;42.38;97869.22;5022906;28;20091;-59
2022/03/30 09:58:41;;;;;;;4.38;1.73;;;;;;;21.83;42.12;97865.22;5016423;28;20045;-60
2022/03/30 10:01:09;;;;;;;4.43;1.65;;;;;;;21.80;42.14;97856.94;5012514;28;20081;-60
2022/03/30 10:03:59;;;;;;;4.55;2.28;;;;;;;21.79;42.17;97855.34;5014263;28;20045;-61
2022/03/30 10:06:26;;;;;;;4.15;1.80;;;;;;;21.81;42.26;97862.06;5014411;28;20045;-59
2022/03/30 10:08:53;;;;;;;4.47;1.95;;;;;;;21.83;42.24;97856.88;5021696;28;20055;-60
2022/03/30 10:11:21;;;;;;;3.42;1.80;;;;;;;21.83;42.04;97851.31;5010316;28;20073;-59
2022/03/30 10:13:58;;;;;;;3.20;1.65;;;;;;;21.86;42.31;97855.22;5016974;28;20037;-59
2022/03/30 10:16:24;;;;;;;4.93;1.75;;;;;;;21.89;41.84;97846.84;5004984;28;20168;-60
2022/03/30 10:18:51;;;;;;;3.63;1.60;;;;;;;21.89;41.49;97844.06;5015608;28;20731;-60
2022/03/30 10:21:16;;;;;;;5.25;1.90;;;;;;;21.90;41.62;97842.84;5112630;28;20054;-59
2022/03/30 10:24:13;;;;;;;6.75;1.60;;;;;;;21.89;41.51;97835.72;5111544;28;20035;-59
2022/03/30 10:27:05;;;;;;;4.07;1.58;;;;;;;21.86;41.45;97833.78;5115496;28;20054;-59
2022/03/30 10:29:31;;;;;;;5.63;1.65;;;;;;;21.84;41.58;97829.81;5100949;28;20047;-60
2022/03/30 10:32:19;;;;;;;3.92;2.10;;;;;;;21.81;41.41;97820.31;5117071;28;20040;-59
2022/03/30 10:35:09;;;;;;;4.13;1.60;;;;;;;21.79;41.62;97817.19;5112213;28;20056;-59
2022/03/30 10:37:37;;;;;;;3.28;1.60;;;;;;;21.78;41.93;97821.16;5118436;28;20418;-59
2022/03/30 10:40:03;;;;;;;3.42;1.73;;;;;;;21.77;41.55;97816.00;5115857;28;20054;-59
2022/03/30 10:42:54;;;;;;;3.97;1.55;;;;;;;21.75;41.89;97816.44;5118072;28;20043;-63
2022/03/30 10:45:55;;;;;;;3.30;1.50;;;;;;;21.78;41.61;97803.66;5118726;28;20059;-63
2022/03/30 10:48:29;;;;;;;4.30;1.70;;;;;;;21.78;41.84;97809.22;5117229;28;20550;-63
2022/03/30 10:51:07;;;;;;;2.83;1.75;;;;;;;21.77;41.74;97802.88;5114163;28;20038;-62
2022/03/30 10:53:35;;;;;;;2.40;1.55;;;;;;;21.77;41.79;97804.88;5107776;28;20043;-63
2022/03/30 10:56:16;;;;;;;2.05;1.30;;;;;;;21.74;41.84;97800.94;5117305;27;20856;-62
2022/03/30 10:58:58;;;;;;;2.20;1.38;;;;;;;21.75;41.60;97794.16;5111368;28;20042;-62
2022/03/30 11:01:31;;;;;;;2.35;1.40;;;;;;;21.79;41.71;97791.31;5117315;28;20048;-62
2022/03/30 11:04:18;;;;;;;5.40;1.48;;;;;;;21.79;41.99;97794.09;5114428;28;20043;-61
2022/03/30 11:07:07;;;;;;;2.63;1.67;;;;;;;21.77;41.89;97786.19;5113682;28;20535;-63
2022/03/30 11:09:34;;;;;;;2.70;1.70;;;;;;;21.79;41.77;97783.78;5097297;28;20066;-60
2022/03/30 11:12:12;;;;;;;3.88;1.60;;;;;;;21.81;41.99;97792.50;5114187;28;20044;-61
2022/03/30 11:14:43;;;;;;;3.53;1.58;;;;;;;21.84;41.85;97785.28;5110958;28;20569;-61
2022/03/30 11:17:13;;;;;;;2.55;1.60;;;;;;;21.85;41.95;97782.06;5112763;27;20043;-63
2022/03/30 11:19:47;;;;;;;2.92;1.60;;;;;;;21.84;42.04;97786.06;5119545;28;20125;-61
2022/03/30 11:22:23;;;;;;;2.63;1.55;;;;;;;21.88;41.68;97778.47;5114149;28;21213;-61
2022/03/30 11:25:09;;;;;;;2.55;1.50;;;;;;;21.87;41.66;97770.53;5111853;28;21479;-61
2022/03/30 11:27:35;;;;;;;3.03;1.35;;;;;;;21.89;41.66;97765.34;5111584;28;20054;-60
2022/03/30 11:30:08;;;;;;;3.85;1.70;;;;;;;21.88;41.86;97772.13;5106880;28;20038;-63
2022/03/30 11:32:37;;;;;;;2.53;1.40;;;;;;;21.88;41.87;97763.75;5117178;28;20460;-62
2022/03/30 11:35:12;;;;;;;2.50;1.42;;;;;;;21.88;41.78;97756.19;5112257;28;20147;-63
2022/03/30 11:37:43;;;;;;;2.75;1.52;;;;;;;21.86;42.03;97747.50;5114584;28;20077;-61
2022/03/30 11:40:12;;;;;;;2.25;1.40;;;;;;;21.88;41.92;97744.28;5109774;28;20051;-61
2022/03/30 11:42:52;;;;;;;2.20;1.23;;;;;;;21.89;41.52;97746.63;5113719;28;20140;-61
2022/03/30 11:45:21;;;;;;;2.92;1.45;;;;;;;21.90;41.43;97744.63;5112062;28;20040;-61